METAR AND TAF INFORMATION
METAR FOR KFLL
KFLL 130653Z 32007KT 10SM CLR 21/14 A3016 RMK AO2 SLP211 T02060144 $
KFLL 130553Z 32007KT 10SM CLR 21/14 A3016 RMK AO2 SLP213 T02110139 10244 20211 50004
KFLL 130453Z 32007KT 10SM CLR 22/13 A3017 RMK AO2 SLP217 T02220133 402940217
KFLL 130837Z 1309/1412 32011KT P6SM SKC
FM131400 04012G20KT P6SM SKC
FM140000 05010KT P6SM SKC

 AIRPORT MAP

 RUNWAY INFORMATION
Runway 09L Runway length 9000 ft Runway width 150 ft
Runway elevation 6 ft Runway displaced threshold 577 ft Runway heading 90
Runway 27R Runway length 9000 ft Runway width 150 ft
Runway elevation 5 ft Runway displaced threshold 604 ft Runway heading 270
Runway 09R Runway length 5276 ft Runway width 100 ft
Runway elevation 5 ft Runway displaced threshold 320 ft Runway heading 90
Runway 27L Runway length 5276 ft Runway width 100 ft
Runway elevation 5 ft Runway displaced threshold 142 ft Runway heading 270
Runway 13 Runway length 6930 ft Runway width 150 ft
Runway elevation 6 ft Runway displaced threshold 0 ft Runway heading 135
Runway 31 Runway length 6930 ft Runway width 150 ft
Runway elevation 6 ft Runway displaced threshold 70 ft Runway heading 315

 AIRPORT FREQUENCIES
Type APP Name MIAMI APP Frequency 118.1 MHZ
Type ATIS Name ATIS Frequency 135 MHZ
Type CLD Name CLNC DEL Frequency 128.4 MHZ
Type DEP Name MIAMI DEP Frequency 119.7 MHZ
Type GND Name GND Frequency 121.4 MHZ
Type TWR Name TWR Frequency 119.3 MHZ
Type UNIC Name UNICOM Frequency 122.95 MHZ

 AIRPORT NEAR NAVIGATION AIDS
Type VOR-DME Name Fort Lauderdale Frequency 114400 KHZ
Type NDB Name Plantation Frequency 242 KHZ

-